This is the latest recevied weather packets stored in our database for station/object KB9PVH-3. If no packets are shown the sender has not sent any weather packets the latest 10 day(s).
| Time | Temp. | Humidity | Pressure | Rain* | Wind** | Luminosity | Snow |
|---|---|---|---|---|---|---|---|
| 1777668329 | 8.89° C | 53% | 1019.1 hPa | 0 mm | - | - | - |
| 1777665178 | 7.22° C | 62% | 1019.2 hPa | 0 mm | - | - | - |
| 1777664128 | 7.78° C | 58% | 1018.9 hPa | 0 mm | - | - | - |
| 1777663082 | 8.33° C | 59% | 1018.7 hPa | 0 mm | - | - | - |
| 1777662032 | 8.33° C | 54% | 1018.8 hPa | 0 mm | - | - | - |
| 1777660978 | 8.33° C | 57% | 1018.7 hPa | 0 mm | - | - | - |
| 1777658878 | 7.78° C | 61% | 1018.6 hPa | 0 mm | - | - | - |
| 1777657829 | 8.89° C | 57% | 1018.5 hPa | 0 mm | - | - | - |
| 1777656778 | 7.78° C | 61% | 1018.5 hPa | 0 mm | - | - | - |
| 1777655728 | 7.78° C | 61% | 1018.8 hPa | 0 mm | - | - | - |
| 1777654678 | 7.22° C | 62% | 1018.6 hPa | 0 mm | - | - | - |
| 1777653627 | 7.78° C | 63% | 1018.8 hPa | 0 mm | - | - | - |
| 1777652582 | 7.78° C | 62% | 1018.7 hPa | 0 mm | - | - | - |
| 1777651529 | 7.78° C | 61% | 1018.6 hPa | 0 mm | - | - | - |
| 1777650482 | 8.33° C | 59% | 1018.8 hPa | 0 mm | - | - | - |
| 1777649428 | 7.22° C | 63% | 1018.9 hPa | 0 mm | - | - | - |
| 1777648407 | 6.67° C | 65% | 1018.7 hPa | 0 mm | - | - | - |
| 1777647357 | 7.78° C | 66% | 1018.6 hPa | 0 mm | - | - | - |
| 1777646312 | 7.78° C | 61% | 1018.4 hPa | 0 mm | - | - | - |
| 1777645261 | 7.22° C | 72% | 1018.8 hPa | 0 mm | - | - | - |
| 1777644207 | 7.22° C | 74% | 1018.6 hPa | 0 mm | - | - | - |
| 1777642107 | 6.11° C | 81% | 1018.6 hPa | 0 mm | - | - | - |
| 1777641057 | 5° C | 86% | 1018.5 hPa | 0 mm | - | - | - |
| 1777640012 | 3.89° C | 91% | 1018.5 hPa | 0 mm | - | - | - |
| 1777638957 | 3.33° C | 96% | 1018.5 hPa | 0 mm | - | - | - |
* Rain latest hour (hover to see other rain measurements)
** Current wind speed in m/s (hover to see current wind gust speed)